createdAt,value
2023-04-29T00:01:04.231Z,25.13
2023-04-29T00:06:06.195Z,24.17
2023-04-29T00:11:08.102Z,23.65
2023-04-29T00:16:13.838Z,22.92
2023-04-29T00:21:15.889Z,20.92
2023-04-29T00:26:17.863Z,19.83
2023-04-29T00:31:19.647Z,19.73
2023-04-29T00:36:21.454Z,20.90
2023-04-29T00:41:24.241Z,20.75
2023-04-29T00:46:26.191Z,21.08
2023-04-29T00:51:28.239Z,21.38
2023-04-29T00:56:34.078Z,22.30
2023-04-29T01:01:36.565Z,20.58
2023-04-29T01:06:57.340Z,20.15
2023-04-29T01:12:15.299Z,21.23
2023-04-29T01:17:20.859Z,20.63
2023-04-29T01:22:23.000Z,20.45
2023-04-29T01:27:42.431Z,21.08
2023-04-29T01:32:56.610Z,22.77
2023-04-29T01:38:23.246Z,20.45
2023-04-29T01:43:28.940Z,21.90
2023-04-29T01:48:31.563Z,21.80
2023-04-29T01:53:33.573Z,26.65
2023-04-29T01:58:35.679Z,23.27
2023-04-29T02:03:37.651Z,23.40
2023-04-29T02:08:39.615Z,21.55
2023-04-29T02:13:41.917Z,20.75
2023-04-29T02:18:43.814Z,21.65
2023-04-29T02:23:45.985Z,22.75
2023-04-29T02:28:47.736Z,22.88
2023-04-29T02:33:49.866Z,24.30
2023-04-29T02:38:54.044Z,23.08
2023-04-29T02:43:55.829Z,23.92
2023-04-29T02:48:57.571Z,21.85
2023-04-29T02:53:59.322Z,23.17
2023-04-29T02:59:01.286Z,21.00
2023-04-29T03:04:03.210Z,20.92
2023-04-29T03:09:05.121Z,21.98
2023-04-29T03:14:07.002Z,20.20
2023-04-29T03:19:09.101Z,19.45
2023-04-29T03:24:10.889Z,19.08
2023-04-29T03:29:12.649Z,19.50
2023-04-29T03:34:15.335Z,19.58
2023-04-29T03:39:18.092Z,20.02
2023-04-29T03:44:19.917Z,19.95
2023-04-29T03:49:21.674Z,20.55
2023-04-29T03:54:23.768Z,20.25
2023-04-29T03:59:25.646Z,21.65
2023-04-29T04:04:27.559Z,18.83
2023-04-29T04:09:29.543Z,20.30
2023-04-29T04:14:31.770Z,22.50
2023-04-29T04:19:33.732Z,26.05
2023-04-29T04:24:35.539Z,25.83
2023-04-29T04:29:37.302Z,26.50
2023-04-29T04:34:42.326Z,25.67
2023-04-29T04:39:44.403Z,24.77
2023-04-29T04:44:46.614Z,26.63
2023-04-29T04:49:49.919Z,26.23
2023-04-29T04:54:51.768Z,27.33
2023-04-29T04:59:53.838Z,28.50
2023-04-29T05:04:56.177Z,27.73
2023-04-29T05:09:58.205Z,25.27
2023-04-29T05:15:00.277Z,25.73
2023-04-29T05:20:02.149Z,27.38
2023-04-29T05:25:04.028Z,25.88
2023-04-29T05:30:06.361Z,25.40
2023-04-29T05:35:08.694Z,23.30
2023-04-29T05:40:10.718Z,24.58
2023-04-29T05:45:12.648Z,25.05
2023-04-29T05:50:14.380Z,22.35
2023-04-29T05:55:16.260Z,22.90
2023-04-29T06:00:18.102Z,23.45
2023-04-29T06:05:20.493Z,25.15
2023-04-29T06:10:22.566Z,22.45
2023-04-29T06:15:24.434Z,23.55
2023-04-29T06:20:26.398Z,23.45
2023-04-29T06:25:28.171Z,23.45
2023-04-29T06:30:30.043Z,22.70
2023-04-29T06:35:31.821Z,23.33
2023-04-29T06:40:33.673Z,22.13
2023-04-29T06:45:35.507Z,22.10
2023-04-29T06:50:37.296Z,21.60
2023-04-29T06:55:39.067Z,20.60
2023-04-29T07:00:44.454Z,20.05
2023-04-29T07:05:46.480Z,20.77
2023-04-29T07:10:55.916Z,20.10
2023-04-29T07:15:57.755Z,19.40
2023-04-29T07:21:02.676Z,19.58
2023-04-29T07:26:16.022Z,20.25
2023-04-29T07:31:17.877Z,21.35
2023-04-29T07:36:19.780Z,20.58
2023-04-29T07:41:22.520Z,20.50
2023-04-29T07:46:24.375Z,20.00
2023-04-29T07:51:29.202Z,20.90
2023-04-29T07:56:31.507Z,19.73
2023-04-29T08:01:33.550Z,19.83
2023-04-29T08:06:35.876Z,18.88
2023-04-29T08:11:37.777Z,19.30
2023-04-29T08:16:39.626Z,19.00
2023-04-29T08:21:41.727Z,18.23
2023-04-29T08:26:43.573Z,17.05
2023-04-29T08:31:45.658Z,18.70
2023-04-29T08:36:47.442Z,19.30
2023-04-29T08:41:51.478Z,18.48
2023-04-29T08:46:53.797Z,17.73
2023-04-29T08:51:55.837Z,18.38
2023-04-29T08:56:59.292Z,18.23
2023-04-29T09:02:01.062Z,17.08
2023-04-29T09:07:04.222Z,17.23
2023-04-29T09:12:06.514Z,17.83
2023-04-29T09:17:08.357Z,16.98
2023-04-29T09:22:11.179Z,17.20
2023-04-29T09:27:27.615Z,16.67
2023-04-29T09:32:29.493Z,16.70
2023-04-29T09:37:31.613Z,14.57
2023-04-29T09:42:43.410Z,16.25
2023-04-29T09:47:45.749Z,14.93
2023-04-29T09:52:48.125Z,14.95
2023-04-29T09:57:49.960Z,15.45
2023-04-29T10:02:54.611Z,15.52
2023-04-29T10:07:59.340Z,14.48
2023-04-29T10:13:01.808Z,15.43
2023-04-29T10:18:14.378Z,12.48
2023-04-29T10:23:17.752Z,13.23
2023-04-29T10:28:21.656Z,13.23
2023-04-29T10:33:23.711Z,12.30
2023-04-29T10:38:37.486Z,13.30
2023-04-29T10:43:39.414Z,13.43
2023-04-29T10:48:41.201Z,13.10
2023-04-29T10:54:01.869Z,14.32
2023-04-29T11:04:05.829Z,14.18
2023-04-29T11:09:18.560Z,12.93
2023-04-29T11:14:40.785Z,12.80
2023-04-29T11:19:47.548Z,14.10
2023-04-29T11:24:53.691Z,13.20
2023-04-29T11:29:58.495Z,12.57
2023-04-29T11:35:17.528Z,12.98
2023-04-29T11:40:19.484Z,12.13
2023-04-29T11:45:21.328Z,11.80
2023-04-29T11:50:23.498Z,12.35
2023-04-29T11:55:25.964Z,10.38
2023-04-29T12:00:27.809Z,11.45
2023-04-29T12:05:30.220Z,11.30
2023-04-29T12:10:32.708Z,9.98
2023-04-29T12:15:35.762Z,10.93
2023-04-29T12:20:39.712Z,10.15
2023-04-29T12:25:42.587Z,10.93
2023-04-29T12:30:46.003Z,9.90
2023-04-29T12:35:50.305Z,9.68
2023-04-29T12:40:52.832Z,10.77
2023-04-29T12:46:00.504Z,10.18
2023-04-29T12:51:02.889Z,11.00
2023-04-29T12:56:06.020Z,10.65
2023-04-29T13:01:07.892Z,10.43
2023-04-29T13:06:09.917Z,10.40
2023-04-29T13:11:13.640Z,10.10
2023-04-29T13:16:15.885Z,10.60
2023-04-29T13:21:17.692Z,10.13
2023-04-29T13:26:19.588Z,10.50
2023-04-29T13:31:21.441Z,10.30
2023-04-29T13:36:23.289Z,9.70
2023-04-29T13:41:26.530Z,9.38
2023-04-29T13:46:31.438Z,8.63
2023-04-29T13:52:06.682Z,10.00
2023-04-29T13:57:44.269Z,9.13
2023-04-29T14:02:25.003Z,9.10
2023-04-29T14:07:27.948Z,10.27
2023-04-29T14:12:29.701Z,9.95
2023-04-29T14:17:31.895Z,10.23
2023-04-29T14:22:33.812Z,9.15
2023-04-29T14:27:36.981Z,9.88
2023-04-29T14:32:38.784Z,10.32
2023-04-29T14:37:40.606Z,9.93
2023-04-29T14:42:42.427Z,10.40
2023-04-29T14:47:44.430Z,10.30
2023-04-29T14:52:46.541Z,10.82
2023-04-29T14:57:48.829Z,10.57
2023-04-29T15:02:50.871Z,10.80
2023-04-29T15:07:52.729Z,10.50
2023-04-29T15:12:54.912Z,10.07
2023-04-29T15:17:56.979Z,10.57
2023-04-29T15:22:59.023Z,9.25
2023-04-29T15:28:02.035Z,9.70
2023-04-29T15:33:04.804Z,9.43
2023-04-29T15:38:07.890Z,8.75
2023-04-29T15:43:09.762Z,9.18
2023-04-29T15:48:11.562Z,9.50
2023-04-29T15:53:13.365Z,8.73
2023-04-29T15:58:15.348Z,7.63
2023-04-29T16:03:17.288Z,8.27
2023-04-29T16:08:19.147Z,10.00
2023-04-29T16:13:21.038Z,7.20
2023-04-29T16:18:23.120Z,6.88
2023-04-29T16:23:24.955Z,7.03
2023-04-29T16:28:26.836Z,6.82
2023-04-29T16:33:29.311Z,6.43
2023-04-29T16:38:31.947Z,6.13
2023-04-29T16:43:34.101Z,6.05
2023-04-29T16:48:36.074Z,7.07
2023-04-29T16:53:37.842Z,6.78
2023-04-29T16:58:39.597Z,8.70
2023-04-29T17:03:41.703Z,6.60
2023-04-29T17:08:44.652Z,5.75
2023-04-29T17:13:46.784Z,5.85
2023-04-29T17:18:48.784Z,6.88
2023-04-29T17:23:51.667Z,5.85
2023-04-29T17:28:53.572Z,6.03
2023-04-29T17:34:04.929Z,6.40
2023-04-29T17:39:09.936Z,5.93
2023-04-29T17:44:11.865Z,6.13
2023-04-29T17:49:14.583Z,5.85
2023-04-29T17:54:16.446Z,5.70
2023-04-29T17:59:18.222Z,6.57
2023-04-29T18:04:20.241Z,6.45
2023-04-29T18:09:22.189Z,5.82
2023-04-29T18:14:24.699Z,6.22
2023-04-29T18:19:27.061Z,8.45
2023-04-29T18:24:29.357Z,6.70
2023-04-29T18:29:31.178Z,5.75
2023-04-29T18:34:33.017Z,5.80
2023-04-29T18:39:35.273Z,5.78
2023-04-29T18:44:37.316Z,5.82
2023-04-29T18:49:39.157Z,5.50
2023-04-29T18:54:41.385Z,5.85
2023-04-29T18:59:43.142Z,6.20
2023-04-29T19:04:45.832Z,6.10
2023-04-29T19:09:47.730Z,6.18
2023-04-29T19:14:49.839Z,6.70
2023-04-29T19:19:51.759Z,7.25
2023-04-29T19:24:53.849Z,6.80
2023-04-29T19:29:56.023Z,7.70
2023-04-29T19:34:57.942Z,8.43
2023-04-29T19:39:59.820Z,10.00
2023-04-29T19:45:01.739Z,10.18
2023-04-29T19:50:04.445Z,9.50
2023-04-29T19:55:08.931Z,8.85
2023-04-29T20:00:13.559Z,9.45
2023-04-29T20:05:15.344Z,9.85
2023-04-29T20:10:17.493Z,9.02
2023-04-29T20:15:19.434Z,9.30
2023-04-29T20:20:21.340Z,9.65
2023-04-29T20:25:24.254Z,9.35
2023-04-29T20:30:26.733Z,10.50
2023-04-29T20:35:29.727Z,10.40
2023-04-29T20:40:32.657Z,10.23
2023-04-29T20:45:36.851Z,9.75
2023-04-29T20:50:38.754Z,10.85
2023-04-29T20:55:40.577Z,12.00
2023-04-29T21:00:42.750Z,12.23
2023-04-29T21:05:44.896Z,12.20
2023-04-29T21:10:46.888Z,13.90
2023-04-29T21:15:48.763Z,14.05
2023-04-29T21:20:51.398Z,13.00
2023-04-29T21:25:53.230Z,13.57
2023-04-29T21:30:55.221Z,13.48
2023-04-29T21:35:57.188Z,13.40
2023-04-29T21:41:00.436Z,14.07
2023-04-29T21:46:02.344Z,15.27
2023-04-29T21:51:06.018Z,13.85
2023-04-29T21:56:08.131Z,14.55
2023-04-29T22:01:29.177Z,13.50
2023-04-29T22:06:31.574Z,13.55
2023-04-29T22:11:33.713Z,14.43
2023-04-29T22:16:38.260Z,15.10
2023-04-29T22:21:42.958Z,14.10
2023-04-29T22:26:44.824Z,15.38
2023-04-29T22:31:46.819Z,15.52
2023-04-29T22:36:48.590Z,15.15
2023-04-29T22:41:50.603Z,14.52
2023-04-29T22:46:52.383Z,14.43
2023-04-29T22:51:54.139Z,15.48
2023-04-29T22:56:55.917Z,15.20
2023-04-29T23:01:57.856Z,15.02
2023-04-29T23:06:59.753Z,14.68
2023-04-29T23:12:02.535Z,15.02
2023-04-29T23:17:04.317Z,15.05
2023-04-29T23:22:07.401Z,15.68
2023-04-29T23:27:09.184Z,15.10
2023-04-29T23:32:10.978Z,16.08
2023-04-29T23:37:12.756Z,14.95
2023-04-29T23:42:14.543Z,15.68
2023-04-29T23:47:16.345Z,13.85
2023-04-29T23:52:18.271Z,13.40
2023-04-29T23:57:20.172Z,13.55
